sensor_id;sensor_type;location;lat;lon;timestamp;temperature;humidity
30534;DHT22;17318;52.390;9.754;2022-11-20T00:03:39;1.20;95.10
30534;DHT22;17318;52.390;9.754;2022-11-20T00:06:08;1.30;95.20
30534;DHT22;17318;52.390;9.754;2022-11-20T00:08:35;1.10;95.20
30534;DHT22;17318;52.390;9.754;2022-11-20T00:11:05;1.10;95.40
30534;DHT22;17318;52.390;9.754;2022-11-20T00:13:31;1.10;95.50
30534;DHT22;17318;52.390;9.754;2022-11-20T00:16:02;1.10;95.40
30534;DHT22;17318;52.390;9.754;2022-11-20T00:18:29;1.10;95.40
30534;DHT22;17318;52.390;9.754;2022-11-20T00:21:04;1.00;95.40
30534;DHT22;17318;52.390;9.754;2022-11-20T00:23:30;1.00;95.40
30534;DHT22;17318;52.390;9.754;2022-11-20T00:25:56;1.00;95.40
30534;DHT22;17318;52.390;9.754;2022-11-20T00:28:22;0.90;95.40
30534;DHT22;17318;52.390;9.754;2022-11-20T00:30:47;0.90;95.40
30534;DHT22;17318;52.390;9.754;2022-11-20T00:33:13;1.00;95.50
30534;DHT22;17318;52.390;9.754;2022-11-20T00:35:39;1.00;95.60
30534;DHT22;17318;52.390;9.754;2022-11-20T00:38:04;0.90;95.40
30534;DHT22;17318;52.390;9.754;2022-11-20T00:40:30;0.90;95.50
30534;DHT22;17318;52.390;9.754;2022-11-20T00:42:56;0.90;95.50
30534;DHT22;17318;52.390;9.754;2022-11-20T00:45:21;0.90;95.60
30534;DHT22;17318;52.390;9.754;2022-11-20T00:47:47;0.80;95.50
30534;DHT22;17318;52.390;9.754;2022-11-20T00:50:13;0.80;95.60
30534;DHT22;17318;52.390;9.754;2022-11-20T00:52:38;0.80;95.60
30534;DHT22;17318;52.390;9.754;2022-11-20T00:55:04;0.90;95.50
30534;DHT22;17318;52.390;9.754;2022-11-20T00:57:31;0.90;95.40
30534;DHT22;17318;52.390;9.754;2022-11-20T00:59:57;0.80;95.30
30534;DHT22;17318;52.390;9.754;2022-11-20T01:02:22;0.80;95.40
30534;DHT22;17318;52.390;9.754;2022-11-20T01:04:48;0.70;95.40
30534;DHT22;17318;52.390;9.754;2022-11-20T01:07:14;0.60;95.60
30534;DHT22;17318;52.390;9.754;2022-11-20T01:09:39;0.70;95.70
30534;DHT22;17318;52.390;9.754;2022-11-20T01:12:05;0.70;95.80
30534;DHT22;17318;52.390;9.754;2022-11-20T01:14:31;0.60;95.60
30534;DHT22;17318;52.390;9.754;2022-11-20T01:16:57;0.60;95.70
30534;DHT22;17318;52.390;9.754;2022-11-20T01:19:23;0.60;95.60
30534;DHT22;17318;52.390;9.754;2022-11-20T01:21:51;0.60;95.70
30534;DHT22;17318;52.390;9.754;2022-11-20T01:24:18;0.70;95.80
30534;DHT22;17318;52.390;9.754;2022-11-20T01:26:46;0.60;95.90
30534;DHT22;17318;52.390;9.754;2022-11-20T01:29:23;0.70;95.90
30534;DHT22;17318;52.390;9.754;2022-11-20T01:31:49;0.80;95.80
30534;DHT22;17318;52.390;9.754;2022-11-20T01:34:18;0.70;95.70
30534;DHT22;17318;52.390;9.754;2022-11-20T01:36:44;0.70;95.80
30534;DHT22;17318;52.390;9.754;2022-11-20T01:41:37;0.70;95.90
30534;DHT22;17318;52.390;9.754;2022-11-20T01:44:57;0.70;96.00
30534;DHT22;17318;52.390;9.754;2022-11-20T01:47:38;0.80;96.20
30534;DHT22;17318;52.390;9.754;2022-11-20T01:50:12;0.80;96.20
30534;DHT22;17318;52.390;9.754;2022-11-20T01:52:44;0.90;96.10
30534;DHT22;17318;52.390;9.754;2022-11-20T01:55:18;0.80;96.30
30534;DHT22;17318;52.390;9.754;2022-11-20T01:57:45;0.90;96.10
30534;DHT22;17318;52.390;9.754;2022-11-20T02:00:16;0.90;96.00
30534;DHT22;17318;52.390;9.754;2022-11-20T02:02:45;0.90;96.00
30534;DHT22;17318;52.390;9.754;2022-11-20T02:08:04;1.10;96.10
30534;DHT22;17318;52.390;9.754;2022-11-20T02:10:31;1.20;96.10
30534;DHT22;17318;52.390;9.754;2022-11-20T02:12:57;1.20;96.00
30534;DHT22;17318;52.390;9.754;2022-11-20T02:15:42;1.20;96.00
30534;DHT22;17318;52.390;9.754;2022-11-20T02:18:10;1.10;96.00
30534;DHT22;17318;52.390;9.754;2022-11-20T02:20:37;1.10;96.00
30534;DHT22;17318;52.390;9.754;2022-11-20T02:23:18;1.20;96.10
30534;DHT22;17318;52.390;9.754;2022-11-20T02:25:48;1.30;96.20
30534;DHT22;17318;52.390;9.754;2022-11-20T02:28:15;1.30;96.20
30534;DHT22;17318;52.390;9.754;2022-11-20T02:30:41;1.30;96.20
30534;DHT22;17318;52.390;9.754;2022-11-20T02:33:06;1.30;96.10
30534;DHT22;17318;52.390;9.754;2022-11-20T02:38:02;1.40;96.20
30534;DHT22;17318;52.390;9.754;2022-11-20T02:40:28;1.60;96.00
30534;DHT22;17318;52.390;9.754;2022-11-20T02:42:57;1.60;96.00
30534;DHT22;17318;52.390;9.754;2022-11-20T02:45:23;1.60;96.10
30534;DHT22;17318;52.390;9.754;2022-11-20T02:47:49;1.60;95.90
30534;DHT22;17318;52.390;9.754;2022-11-20T02:50:16;1.50;95.90
30534;DHT22;17318;52.390;9.754;2022-11-20T02:52:42;1.40;96.10
30534;DHT22;17318;52.390;9.754;2022-11-20T02:55:07;1.50;96.30
30534;DHT22;17318;52.390;9.754;2022-11-20T02:57:33;1.60;96.20
30534;DHT22;17318;52.390;9.754;2022-11-20T02:59:59;1.70;96.00
30534;DHT22;17318;52.390;9.754;2022-11-20T03:02:25;1.90;95.70
30534;DHT22;17318;52.390;9.754;2022-11-20T03:04:51;2.00;95.60
30534;DHT22;17318;52.390;9.754;2022-11-20T03:07:16;1.90;95.60
30534;DHT22;17318;52.390;9.754;2022-11-20T03:09:42;1.90;95.40
30534;DHT22;17318;52.390;9.754;2022-11-20T03:12:08;2.00;95.60
30534;DHT22;17318;52.390;9.754;2022-11-20T03:14:34;2.00;95.50
30534;DHT22;17318;52.390;9.754;2022-11-20T03:17:00;2.00;95.60
30534;DHT22;17318;52.390;9.754;2022-11-20T03:19:25;2.00;95.70
30534;DHT22;17318;52.390;9.754;2022-11-20T03:21:51;2.00;95.60
30534;DHT22;17318;52.390;9.754;2022-11-20T03:24:17;1.80;95.60
30534;DHT22;17318;52.390;9.754;2022-11-20T03:26:42;1.80;96.00
30534;DHT22;17318;52.390;9.754;2022-11-20T03:29:08;1.80;95.90
30534;DHT22;17318;52.390;9.754;2022-11-20T03:31:37;1.80;96.20
30534;DHT22;17318;52.390;9.754;2022-11-20T03:34:06;1.70;95.90
30534;DHT22;17318;52.390;9.754;2022-11-20T03:36:32;1.70;95.90
30534;DHT22;17318;52.390;9.754;2022-11-20T03:38:58;1.70;96.00
30534;DHT22;17318;52.390;9.754;2022-11-20T03:41:27;1.70;95.90
30534;DHT22;17318;52.390;9.754;2022-11-20T03:43:55;1.80;96.00
30534;DHT22;17318;52.390;9.754;2022-11-20T03:46:21;1.60;96.00
30534;DHT22;17318;52.390;9.754;2022-11-20T03:48:47;1.50;96.10
30534;DHT22;17318;52.390;9.754;2022-11-20T03:53:42;1.50;96.30
30534;DHT22;17318;52.390;9.754;2022-11-20T03:56:09;1.50;96.30
30534;DHT22;17318;52.390;9.754;2022-11-20T03:58:36;1.60;96.30
30534;DHT22;17318;52.390;9.754;2022-11-20T04:01:10;1.60;96.20
30534;DHT22;17318;52.390;9.754;2022-11-20T04:03:37;1.50;96.20
30534;DHT22;17318;52.390;9.754;2022-11-20T04:06:10;1.60;96.30
30534;DHT22;17318;52.390;9.754;2022-11-20T04:08:36;1.70;96.20
30534;DHT22;17318;52.390;9.754;2022-11-20T04:11:12;1.70;96.30
30534;DHT22;17318;52.390;9.754;2022-11-20T04:13:39;1.70;96.30
30534;DHT22;17318;52.390;9.754;2022-11-20T04:16:06;1.70;96.30
30534;DHT22;17318;52.390;9.754;2022-11-20T04:18:32;1.70;96.40
30534;DHT22;17318;52.390;9.754;2022-11-20T04:20:59;1.70;96.40
30534;DHT22;17318;52.390;9.754;2022-11-20T04:23:25;1.80;96.40
30534;DHT22;17318;52.390;9.754;2022-11-20T04:25:51;1.80;96.50
30534;DHT22;17318;52.390;9.754;2022-11-20T04:28:17;1.90;96.20
30534;DHT22;17318;52.390;9.754;2022-11-20T04:30:43;1.90;96.10
30534;DHT22;17318;52.390;9.754;2022-11-20T04:33:08;2.00;96.20
30534;DHT22;17318;52.390;9.754;2022-11-20T04:35:35;1.90;96.10
30534;DHT22;17318;52.390;9.754;2022-11-20T04:38:01;1.80;96.20
30534;DHT22;17318;52.390;9.754;2022-11-20T04:40:30;1.90;96.20
30534;DHT22;17318;52.390;9.754;2022-11-20T04:42:56;2.10;96.00
30534;DHT22;17318;52.390;9.754;2022-11-20T04:45:24;2.20;96.00
30534;DHT22;17318;52.390;9.754;2022-11-20T04:47:50;2.20;95.90
30534;DHT22;17318;52.390;9.754;2022-11-20T04:50:16;2.20;96.00
30534;DHT22;17318;52.390;9.754;2022-11-20T04:52:41;2.10;96.10
30534;DHT22;17318;52.390;9.754;2022-11-20T04:55:07;2.20;96.10
30534;DHT22;17318;52.390;9.754;2022-11-20T04:57:33;2.20;96.10
30534;DHT22;17318;52.390;9.754;2022-11-20T04:59:59;2.30;96.00
30534;DHT22;17318;52.390;9.754;2022-11-20T05:02:24;2.20;96.20
30534;DHT22;17318;52.390;9.754;2022-11-20T05:04:50;2.20;96.40
30534;DHT22;17318;52.390;9.754;2022-11-20T05:07:16;2.10;96.40
30534;DHT22;17318;52.390;9.754;2022-11-20T05:09:41;2.10;96.50
30534;DHT22;17318;52.390;9.754;2022-11-20T05:12:08;2.00;96.50
30534;DHT22;17318;52.390;9.754;2022-11-20T05:14:33;2.00;96.40
30534;DHT22;17318;52.390;9.754;2022-11-20T05:16:59;2.00;96.60
30534;DHT22;17318;52.390;9.754;2022-11-20T05:19:25;2.00;96.60
30534;DHT22;17318;52.390;9.754;2022-11-20T05:21:50;2.10;96.60
30534;DHT22;17318;52.390;9.754;2022-11-20T05:24:16;2.10;96.40
30534;DHT22;17318;52.390;9.754;2022-11-20T05:26:42;2.10;96.50
30534;DHT22;17318;52.390;9.754;2022-11-20T05:29:10;2.20;96.50
30534;DHT22;17318;52.390;9.754;2022-11-20T05:31:39;2.10;96.40
30534;DHT22;17318;52.390;9.754;2022-11-20T05:34:05;2.10;96.80
30534;DHT22;17318;52.390;9.754;2022-11-20T05:36:32;2.20;96.50
30534;DHT22;17318;52.390;9.754;2022-11-20T05:38:58;2.30;96.60
30534;DHT22;17318;52.390;9.754;2022-11-20T05:41:24;2.20;96.50
30534;DHT22;17318;52.390;9.754;2022-11-20T05:43:50;2.10;96.50
30534;DHT22;17318;52.390;9.754;2022-11-20T05:46:18;2.20;96.50
30534;DHT22;17318;52.390;9.754;2022-11-20T05:48:45;2.20;96.50
30534;DHT22;17318;52.390;9.754;2022-11-20T05:51:14;2.30;96.50
30534;DHT22;17318;52.390;9.754;2022-11-20T05:53:40;2.30;96.40
30534;DHT22;17318;52.390;9.754;2022-11-20T05:56:09;2.30;96.50
30534;DHT22;17318;52.390;9.754;2022-11-20T05:58:36;2.30;96.30
30534;DHT22;17318;52.390;9.754;2022-11-20T06:03:35;2.30;96.20
30534;DHT22;17318;52.390;9.754;2022-11-20T06:06:02;2.40;96.20
30534;DHT22;17318;52.390;9.754;2022-11-20T06:08:29;2.50;96.10
30534;DHT22;17318;52.390;9.754;2022-11-20T06:10:55;2.60;96.10
30534;DHT22;17318;52.390;9.754;2022-11-20T06:13:20;2.50;96.00
30534;DHT22;17318;52.390;9.754;2022-11-20T06:15:50;2.40;96.20
30534;DHT22;17318;52.390;9.754;2022-11-20T06:18:16;2.40;96.10
30534;DHT22;17318;52.390;9.754;2022-11-20T06:20:42;2.40;96.10
30534;DHT22;17318;52.390;9.754;2022-11-20T06:23:07;2.40;96.00
30534;DHT22;17318;52.390;9.754;2022-11-20T06:25:33;2.50;96.00
30534;DHT22;17318;52.390;9.754;2022-11-20T06:28:02;2.60;95.80
30534;DHT22;17318;52.390;9.754;2022-11-20T06:30:28;2.50;95.60
30534;DHT22;17318;52.390;9.754;2022-11-20T06:32:53;2.50;95.60
30534;DHT22;17318;52.390;9.754;2022-11-20T06:35:19;2.50;95.40
30534;DHT22;17318;52.390;9.754;2022-11-20T06:37:45;2.50;95.30
30534;DHT22;17318;52.390;9.754;2022-11-20T06:40:11;2.50;95.70
30534;DHT22;17318;52.390;9.754;2022-11-20T06:42:37;2.60;95.60
30534;DHT22;17318;52.390;9.754;2022-11-20T06:45:02;2.50;95.60
30534;DHT22;17318;52.390;9.754;2022-11-20T06:47:28;2.50;95.80
30534;DHT22;17318;52.390;9.754;2022-11-20T06:49:53;2.50;95.80
30534;DHT22;17318;52.390;9.754;2022-11-20T06:52:19;2.60;95.70
30534;DHT22;17318;52.390;9.754;2022-11-20T06:54:46;2.70;95.80
30534;DHT22;17318;52.390;9.754;2022-11-20T06:57:11;2.60;95.90
30534;DHT22;17318;52.390;9.754;2022-11-20T06:59:37;2.60;95.80
30534;DHT22;17318;52.390;9.754;2022-11-20T07:02:03;2.60;95.80
30534;DHT22;17318;52.390;9.754;2022-11-20T07:04:28;2.60;95.80
30534;DHT22;17318;52.390;9.754;2022-11-20T07:06:54;2.60;95.70
30534;DHT22;17318;52.390;9.754;2022-11-20T07:09:20;2.60;95.60
30534;DHT22;17318;52.390;9.754;2022-11-20T07:11:45;2.50;95.60
30534;DHT22;17318;52.390;9.754;2022-11-20T07:14:11;2.60;95.70
30534;DHT22;17318;52.390;9.754;2022-11-20T07:16:36;2.60;95.70
30534;DHT22;17318;52.390;9.754;2022-11-20T07:19:02;2.50;95.50
30534;DHT22;17318;52.390;9.754;2022-11-20T07:21:28;2.50;95.60
30534;DHT22;17318;52.390;9.754;2022-11-20T07:23:53;2.50;95.60
30534;DHT22;17318;52.390;9.754;2022-11-20T07:26:19;2.50;95.60
30534;DHT22;17318;52.390;9.754;2022-11-20T07:28:45;2.50;95.70
30534;DHT22;17318;52.390;9.754;2022-11-20T07:31:11;2.50;95.70
30534;DHT22;17318;52.390;9.754;2022-11-20T07:33:38;2.40;96.00
30534;DHT22;17318;52.390;9.754;2022-11-20T07:36:04;2.40;96.00
30534;DHT22;17318;52.390;9.754;2022-11-20T07:38:33;2.40;96.00
30534;DHT22;17318;52.390;9.754;2022-11-20T07:40:59;2.40;95.90
30534;DHT22;17318;52.390;9.754;2022-11-20T07:43:27;2.50;95.80
30534;DHT22;17318;52.390;9.754;2022-11-20T07:45:55;2.70;95.90
30534;DHT22;17318;52.390;9.754;2022-11-20T07:48:21;2.70;95.70
30534;DHT22;17318;52.390;9.754;2022-11-20T07:50:47;2.70;95.60
30534;DHT22;17318;52.390;9.754;2022-11-20T07:53:13;2.60;95.60
30534;DHT22;17318;52.390;9.754;2022-11-20T07:55:39;2.60;95.50
30534;DHT22;17318;52.390;9.754;2022-11-20T07:58:05;2.60;95.70
30534;DHT22;17318;52.390;9.754;2022-11-20T08:00:31;2.70;95.80
30534;DHT22;17318;52.390;9.754;2022-11-20T08:02:57;2.60;95.50
30534;DHT22;17318;52.390;9.754;2022-11-20T08:05:22;2.50;95.40
30534;DHT22;17318;52.390;9.754;2022-11-20T08:07:48;2.60;95.40
30534;DHT22;17318;52.390;9.754;2022-11-20T08:10:15;2.70;95.30
30534;DHT22;17318;52.390;9.754;2022-11-20T08:13:00;2.70;95.30
30534;DHT22;17318;52.390;9.754;2022-11-20T08:15:48;2.70;95.30
30534;DHT22;17318;52.390;9.754;2022-11-20T08:18:16;2.70;95.30
30534;DHT22;17318;52.390;9.754;2022-11-20T08:20:42;2.70;95.20
30534;DHT22;17318;52.390;9.754;2022-11-20T08:23:08;2.70;95.20
30534;DHT22;17318;52.390;9.754;2022-11-20T08:25:35;2.80;95.30
30534;DHT22;17318;52.390;9.754;2022-11-20T08:28:04;2.80;95.20
30534;DHT22;17318;52.390;9.754;2022-11-20T08:30:30;2.70;95.10
30534;DHT22;17318;52.390;9.754;2022-11-20T08:33:01;2.70;95.00
30534;DHT22;17318;52.390;9.754;2022-11-20T08:35:27;2.70;95.10
30534;DHT22;17318;52.390;9.754;2022-11-20T08:37:53;2.80;95.10
30534;DHT22;17318;52.390;9.754;2022-11-20T08:40:19;2.80;95.00
30534;DHT22;17318;52.390;9.754;2022-11-20T08:42:48;2.80;95.10
30534;DHT22;17318;52.390;9.754;2022-11-20T08:45:15;2.80;95.00
30534;DHT22;17318;52.390;9.754;2022-11-20T08:47:42;2.70;94.80
30534;DHT22;17318;52.390;9.754;2022-11-20T08:50:09;2.70;94.80
30534;DHT22;17318;52.390;9.754;2022-11-20T08:52:34;2.70;94.80
30534;DHT22;17318;52.390;9.754;2022-11-20T08:55:00;2.90;94.80
30534;DHT22;17318;52.390;9.754;2022-11-20T08:57:26;2.90;94.70
30534;DHT22;17318;52.390;9.754;2022-11-20T08:59:52;3.00;94.70
30534;DHT22;17318;52.390;9.754;2022-11-20T09:02:17;3.20;94.40
30534;DHT22;17318;52.390;9.754;2022-11-20T09:04:43;3.00;94.40
30534;DHT22;17318;52.390;9.754;2022-11-20T09:07:09;3.10;94.20
30534;DHT22;17318;52.390;9.754;2022-11-20T09:09:34;3.10;94.40
30534;DHT22;17318;52.390;9.754;2022-11-20T09:12:00;3.10;94.30
30534;DHT22;17318;52.390;9.754;2022-11-20T09:14:26;3.10;94.10
30534;DHT22;17318;52.390;9.754;2022-11-20T09:16:55;3.20;94.00
30534;DHT22;17318;52.390;9.754;2022-11-20T09:19:21;3.10;93.90
30534;DHT22;17318;52.390;9.754;2022-11-20T09:21:46;3.10;94.00
30534;DHT22;17318;52.390;9.754;2022-11-20T09:24:12;3.20;94.20
30534;DHT22;17318;52.390;9.754;2022-11-20T09:26:37;3.30;94.20
30534;DHT22;17318;52.390;9.754;2022-11-20T09:29:03;3.30;93.90
30534;DHT22;17318;52.390;9.754;2022-11-20T09:31:29;3.40;94.00
30534;DHT22;17318;52.390;9.754;2022-11-20T09:33:55;3.60;94.00
30534;DHT22;17318;52.390;9.754;2022-11-20T09:36:20;3.60;93.80
30534;DHT22;17318;52.390;9.754;2022-11-20T09:38:47;3.80;93.80
30534;DHT22;17318;52.390;9.754;2022-11-20T09:44:19;3.90;93.40
30534;DHT22;17318;52.390;9.754;2022-11-20T09:54:40;4.40;92.80
30534;DHT22;17318;52.390;9.754;2022-11-20T09:57:15;4.60;92.80
30534;DHT22;17318;52.390;9.754;2022-11-20T09:59:44;4.70;92.50
30534;DHT22;17318;52.390;9.754;2022-11-20T10:05:04;4.90;92.30
30534;DHT22;17318;52.390;9.754;2022-11-20T10:07:41;4.90;92.10
30534;DHT22;17318;52.390;9.754;2022-11-20T10:10:16;4.90;91.80
30534;DHT22;17318;52.390;9.754;2022-11-20T10:13:05;4.80;91.90
30534;DHT22;17318;52.390;9.754;2022-11-20T10:18:34;4.60;91.90
30534;DHT22;17318;52.390;9.754;2022-11-20T10:29:16;4.80;92.20
30534;DHT22;17318;52.390;9.754;2022-11-20T10:31:44;4.80;91.90
30534;DHT22;17318;52.390;9.754;2022-11-20T10:34:31;4.80;91.70
30534;DHT22;17318;52.390;9.754;2022-11-20T10:37:15;4.80;91.70
30534;DHT22;17318;52.390;9.754;2022-11-20T10:40:20;4.80;91.70
30534;DHT22;17318;52.390;9.754;2022-11-20T10:43:01;4.70;91.40
30534;DHT22;17318;52.390;9.754;2022-11-20T10:45:38;4.60;90.90
30534;DHT22;17318;52.390;9.754;2022-11-20T10:48:12;4.80;90.90
30534;DHT22;17318;52.390;9.754;2022-11-20T10:56:28;4.80;90.10
30534;DHT22;17318;52.390;9.754;2022-11-20T11:01:41;4.90;91.00
30534;DHT22;17318;52.390;9.754;2022-11-20T11:06:48;5.20;90.80
30534;DHT22;17318;52.390;9.754;2022-11-20T11:09:25;5.20;90.60
30534;DHT22;17318;52.390;9.754;2022-11-20T11:11:52;5.10;90.40
30534;DHT22;17318;52.390;9.754;2022-11-20T11:14:18;5.10;90.40
30534;DHT22;17318;52.390;9.754;2022-11-20T11:16:55;5.20;90.50
30534;DHT22;17318;52.390;9.754;2022-11-20T11:19:21;5.20;89.80
30534;DHT22;17318;52.390;9.754;2022-11-20T11:21:49;5.30;90.30
30534;DHT22;17318;52.390;9.754;2022-11-20T11:24:25;5.20;89.30
30534;DHT22;17318;52.390;9.754;2022-11-20T11:27:11;5.20;89.40
30534;DHT22;17318;52.390;9.754;2022-11-20T11:29:38;5.20;89.90
30534;DHT22;17318;52.390;9.754;2022-11-20T11:32:15;5.20;89.70
30534;DHT22;17318;52.390;9.754;2022-11-20T11:34:41;5.10;90.10
30534;DHT22;17318;52.390;9.754;2022-11-20T11:37:18;5.10;90.10
30534;DHT22;17318;52.390;9.754;2022-11-20T11:39:46;5.20;90.30
30534;DHT22;17318;52.390;9.754;2022-11-20T11:42:19;5.30;90.30
30534;DHT22;17318;52.390;9.754;2022-11-20T11:44:47;5.30;90.20
30534;DHT22;17318;52.390;9.754;2022-11-20T11:58:47;4.80;89.20
30534;DHT22;17318;52.390;9.754;2022-11-20T12:04:17;5.00;90.00
30534;DHT22;17318;52.390;9.754;2022-11-20T12:06:51;5.00;89.50
30534;DHT22;17318;52.390;9.754;2022-11-20T12:09:20;5.00;90.10
30534;DHT22;17318;52.390;9.754;2022-11-20T12:11:54;5.10;89.90
30534;DHT22;17318;52.390;9.754;2022-11-20T12:14:42;5.10;89.40
30534;DHT22;17318;52.390;9.754;2022-11-20T12:17:12;4.90;88.70
30534;DHT22;17318;52.390;9.754;2022-11-20T12:19:38;4.80;89.00
30534;DHT22;17318;52.390;9.754;2022-11-20T12:22:23;5.00;90.00
30534;DHT22;17318;52.390;9.754;2022-11-20T12:25:11;4.90;89.10
30534;DHT22;17318;52.390;9.754;2022-11-20T12:30:33;5.00;89.70
30534;DHT22;17318;52.390;9.754;2022-11-20T12:43:26;5.30;90.00
30534;DHT22;17318;52.390;9.754;2022-11-20T12:46:32;5.40;90.30
30534;DHT22;17318;52.390;9.754;2022-11-20T12:49:19;5.40;89.50
30534;DHT22;17318;52.390;9.754;2022-11-20T12:52:05;5.40;89.20
30534;DHT22;17318;52.390;9.754;2022-11-20T12:55:07;5.40;89.20
30534;DHT22;17318;52.390;9.754;2022-11-20T12:58:02;5.40;89.10
30534;DHT22;17318;52.390;9.754;2022-11-20T13:00:31;5.40;88.80
30534;DHT22;17318;52.390;9.754;2022-11-20T13:08:20;5.30;89.30
30534;DHT22;17318;52.390;9.754;2022-11-20T13:11:37;5.30;89.40
30534;DHT22;17318;52.390;9.754;2022-11-20T13:18:41;5.10;88.50
30534;DHT22;17318;52.390;9.754;2022-11-20T13:21:16;5.00;88.70
30534;DHT22;17318;52.390;9.754;2022-11-20T13:23:42;4.90;88.90
30534;DHT22;17318;52.390;9.754;2022-11-20T13:26:22;4.90;90.00
30534;DHT22;17318;52.390;9.754;2022-11-20T13:29:09;4.90;89.20
30534;DHT22;17318;52.390;9.754;2022-11-20T13:31:44;5.00;89.60
30534;DHT22;17318;52.390;9.754;2022-11-20T13:34:24;5.00;89.40
30534;DHT22;17318;52.390;9.754;2022-11-20T13:36:52;4.90;89.50
30534;DHT22;17318;52.390;9.754;2022-11-20T13:39:29;5.00;90.00
30534;DHT22;17318;52.390;9.754;2022-11-20T13:42:19;5.10;90.10
30534;DHT22;17318;52.390;9.754;2022-11-20T13:44:53;5.00;89.80
30534;DHT22;17318;52.390;9.754;2022-11-20T13:47:24;5.00;90.10
30534;DHT22;17318;52.390;9.754;2022-11-20T13:49:51;5.10;90.20
30534;DHT22;17318;52.390;9.754;2022-11-20T13:52:42;5.10;90.20
30534;DHT22;17318;52.390;9.754;2022-11-20T13:55:25;5.20;90.10
30534;DHT22;17318;52.390;9.754;2022-11-20T14:00:21;5.20;90.20
30534;DHT22;17318;52.390;9.754;2022-11-20T14:03:09;5.30;90.00
30534;DHT22;17318;52.390;9.754;2022-11-20T14:05:40;5.30;90.10
30534;DHT22;17318;52.390;9.754;2022-11-20T14:08:22;5.40;90.20
30534;DHT22;17318;52.390;9.754;2022-11-20T14:10:49;5.50;90.20
30534;DHT22;17318;52.390;9.754;2022-11-20T14:13:19;5.50;90.10
30534;DHT22;17318;52.390;9.754;2022-11-20T14:15:45;5.40;90.10
30534;DHT22;17318;52.390;9.754;2022-11-20T14:18:13;5.50;90.30
30534;DHT22;17318;52.390;9.754;2022-11-20T14:20:39;5.30;90.50
30534;DHT22;17318;52.390;9.754;2022-11-20T14:23:10;5.30;90.50
30534;DHT22;17318;52.390;9.754;2022-11-20T14:25:36;5.40;90.60
30534;DHT22;17318;52.390;9.754;2022-11-20T14:28:03;5.40;90.50
30534;DHT22;17318;52.390;9.754;2022-11-20T14:30:42;5.40;91.00
30534;DHT22;17318;52.390;9.754;2022-11-20T14:33:14;5.40;90.90
30534;DHT22;17318;52.390;9.754;2022-11-20T14:35:53;5.40;90.80
30534;DHT22;17318;52.390;9.754;2022-11-20T14:38:24;5.30;90.70
30534;DHT22;17318;52.390;9.754;2022-11-20T14:40:51;5.30;90.70
30534;DHT22;17318;52.390;9.754;2022-11-20T14:43:25;5.30;90.70
30534;DHT22;17318;52.390;9.754;2022-11-20T14:46:07;5.30;90.70
30534;DHT22;17318;52.390;9.754;2022-11-20T14:48:48;5.30;90.80
30534;DHT22;17318;52.390;9.754;2022-11-20T14:53:52;5.30;90.90
30534;DHT22;17318;52.390;9.754;2022-11-20T14:56:24;5.30;90.90
30534;DHT22;17318;52.390;9.754;2022-11-20T14:58:57;5.20;91.00
30534;DHT22;17318;52.390;9.754;2022-11-20T15:01:27;5.30;91.10
30534;DHT22;17318;52.390;9.754;2022-11-20T15:04:04;5.20;91.10
30534;DHT22;17318;52.390;9.754;2022-11-20T15:06:30;5.30;91.30
30534;DHT22;17318;52.390;9.754;2022-11-20T15:08:57;5.30;91.10
30534;DHT22;17318;52.390;9.754;2022-11-20T15:11:31;5.20;91.20
30534;DHT22;17318;52.390;9.754;2022-11-20T15:13:58;5.20;91.30
30534;DHT22;17318;52.390;9.754;2022-11-20T15:16:27;5.30;91.30
30534;DHT22;17318;52.390;9.754;2022-11-20T15:18:53;5.30;91.20
30534;DHT22;17318;52.390;9.754;2022-11-20T15:21:19;5.30;91.40
30534;DHT22;17318;52.390;9.754;2022-11-20T15:23:46;5.30;91.50
30534;DHT22;17318;52.390;9.754;2022-11-20T15:26:14;5.30;91.70
30534;DHT22;17318;52.390;9.754;2022-11-20T15:28:42;5.10;91.90
30534;DHT22;17318;52.390;9.754;2022-11-20T15:31:12;5.10;92.10
30534;DHT22;17318;52.390;9.754;2022-11-20T15:33:38;5.10;92.10
30534;DHT22;17318;52.390;9.754;2022-11-20T15:36:04;5.20;92.10
30534;DHT22;17318;52.390;9.754;2022-11-20T15:38:29;5.20;92.10
30534;DHT22;17318;52.390;9.754;2022-11-20T15:40:55;5.10;92.20
30534;DHT22;17318;52.390;9.754;2022-11-20T15:43:21;5.10;92.20
30534;DHT22;17318;52.390;9.754;2022-11-20T15:45:56;5.00;92.30
30534;DHT22;17318;52.390;9.754;2022-11-20T15:48:27;4.90;92.30
30534;DHT22;17318;52.390;9.754;2022-11-20T15:53:27;4.70;92.80
30534;DHT22;17318;52.390;9.754;2022-11-20T15:55:52;4.60;93.00
30534;DHT22;17318;52.390;9.754;2022-11-20T15:58:18;4.70;93.20
30534;DHT22;17318;52.390;9.754;2022-11-20T16:00:44;4.50;93.20
30534;DHT22;17318;52.390;9.754;2022-11-20T16:03:14;4.40;93.10
30534;DHT22;17318;52.390;9.754;2022-11-20T16:05:40;4.40;93.20
30534;DHT22;17318;52.390;9.754;2022-11-20T16:08:06;4.40;93.10
30534;DHT22;17318;52.390;9.754;2022-11-20T16:10:32;4.30;93.30
30534;DHT22;17318;52.390;9.754;2022-11-20T16:12:58;4.50;93.40
30534;DHT22;17318;52.390;9.754;2022-11-20T16:15:50;4.50;93.40
30534;DHT22;17318;52.390;9.754;2022-11-20T16:18:19;4.20;93.30
30534;DHT22;17318;52.390;9.754;2022-11-20T16:20:47;4.10;93.40
30534;DHT22;17318;52.390;9.754;2022-11-20T16:23:13;4.10;93.60
30534;DHT22;17318;52.390;9.754;2022-11-20T16:25:38;3.90;93.80
30534;DHT22;17318;52.390;9.754;2022-11-20T16:28:04;3.80;94.00
30534;DHT22;17318;52.390;9.754;2022-11-20T16:30:31;3.80;94.00
30534;DHT22;17318;52.390;9.754;2022-11-20T16:32:58;3.70;94.00
30534;DHT22;17318;52.390;9.754;2022-11-20T16:35:29;3.60;94.30
30534;DHT22;17318;52.390;9.754;2022-11-20T16:37:55;3.60;94.40
30534;DHT22;17318;52.390;9.754;2022-11-20T16:40:22;3.80;94.70
30534;DHT22;17318;52.390;9.754;2022-11-20T16:42:48;3.70;94.40
30534;DHT22;17318;52.390;9.754;2022-11-20T16:45:13;3.60;94.50
30534;DHT22;17318;52.390;9.754;2022-11-20T16:47:40;3.40;94.50
30534;DHT22;17318;52.390;9.754;2022-11-20T16:50:06;3.40;95.00
30534;DHT22;17318;52.390;9.754;2022-11-20T16:52:32;3.30;94.90
30534;DHT22;17318;52.390;9.754;2022-11-20T16:54:58;3.40;94.90
30534;DHT22;17318;52.390;9.754;2022-11-20T16:57:26;3.50;95.10
30534;DHT22;17318;52.390;9.754;2022-11-20T16:59:52;3.50;94.80
30534;DHT22;17318;52.390;9.754;2022-11-20T17:02:17;3.40;94.90
30534;DHT22;17318;52.390;9.754;2022-11-20T17:04:43;3.50;95.00
30534;DHT22;17318;52.390;9.754;2022-11-20T17:07:09;3.50;95.10
30534;DHT22;17318;52.390;9.754;2022-11-20T17:09:35;3.60;95.10
30534;DHT22;17318;52.390;9.754;2022-11-20T17:12:00;3.50;95.10
30534;DHT22;17318;52.390;9.754;2022-11-20T17:14:26;3.50;95.10
30534;DHT22;17318;52.390;9.754;2022-11-20T17:16:52;3.50;95.20
30534;DHT22;17318;52.390;9.754;2022-11-20T17:19:17;3.50;95.30
30534;DHT22;17318;52.390;9.754;2022-11-20T17:21:43;3.50;94.90
30534;DHT22;17318;52.390;9.754;2022-11-20T17:24:11;3.60;94.80
30534;DHT22;17318;52.390;9.754;2022-11-20T17:26:38;3.60;94.80
30534;DHT22;17318;52.390;9.754;2022-11-20T17:29:14;3.60;94.70
30534;DHT22;17318;52.390;9.754;2022-11-20T17:31:41;3.50;94.70
30534;DHT22;17318;52.390;9.754;2022-11-20T17:34:09;3.60;94.70